CheckWX is a tool to help pilots better visualize weather data.  It is not intended as a substitute for an official pre-flight weather briefing.

13:30:13 UTC

KORD TAF
Chicago O'hare International Airport
Chicago, Illinois, USA
KORD 181205Z 1812/1918 18010KT 6SM -TSRA BR SCT008 BKN035CB OVC080 TEMPO 1812/1815 30025G45KT 1SM +TSRA SCT010 OVC020CB FM181600 22014G24KT P6SM -SHRA BKN040 BKN250 PROB30 1821/1901 -TSRA BKN040CB FM190100 25010KT P6SM SCT040 BKN250 FM190800 33006KT 4SM BR BKN025 FM191200 03005KT P6SM BKN040

Aug-18@
12:00 UTC

Aug-18 @ 12:00 UTC

Aug-18@
16:00 UTC

Aug-18 @ 16:00 UTC

KORD 181205Z 1812/1918 18010KT 6SM -TSRA BR SCT008 BKN035CB OVC080
Wind
  • 180° at 10 KTS
Conditions
Light Thunderstorm, Light Rain, Mist
Cloud Levels
  • Scattered at 800' AGL
  • Broken at 3,500' AGL
  • Overcast at 8,000' AGL

Aug-18@
12:00 UTC

Aug-18 @ 12:00 UTC

Aug-18@
15:00 UTC

Aug-18 @ 15:00 UTC

TEMPO 1812/1815 30025G45KT 1SM +TSRA SCT010 OVC020CB

Temporary

Temporary Changes expected for less than half the time period

Wind
  • 300° at 25 KTS
  • {Gusting to 45 KTS
Conditions
Heavy Thunderstorm, Heavy Rain
Cloud Levels
  • Scattered at 1,000' AGL
  • Overcast at 2,000' AGL

Aug-18@
16:00 UTC

Aug-18 @ 16:00 UTC

Aug-19@
01:00 UTC

Aug-19 @ 01:00 UTC

FM181600 22014G24KT P6SM -SHRA BKN040 BKN250

From

From Standard forecast or significant change

Wind
  • 220° at 14 KTS
  • {Gusting to 24 KTS
Conditions
Light Rain
Cloud Levels
  • Broken at 4,000' AGL
  • Broken at 25,000' AGL

Aug-18@
21:00 UTC

Aug-18 @ 21:00 UTC

Aug-19@
01:00 UTC

Aug-19 @ 01:00 UTC

PROB30 1821/1901 -TSRA BKN040CB

Probable - 30% Likelihood

Probable - 30% Likelihood during this time.

Conditions
Light Thunderstorm, Light Rain
Cloud Levels
  • Broken at 4,000' AGL

Aug-19@
01:00 UTC

Aug-19 @ 01:00 UTC

Aug-19@
08:00 UTC

Aug-19 @ 08:00 UTC

FM190100 25010KT P6SM SCT040 BKN250

From

From Standard forecast or significant change

Wind
  • 250° at 10 KTS
Cloud Levels
  • Scattered at 4,000' AGL
  • Broken at 25,000' AGL

Aug-19@
08:00 UTC

Aug-19 @ 08:00 UTC

Aug-19@
12:00 UTC

Aug-19 @ 12:00 UTC

FM190800 33006KT 4SM BR BKN025

From

From Standard forecast or significant change

Wind
  • 330° at 6 KTS
Conditions
Mist
Cloud Levels
  • Broken at 2,500' AGL

Aug-19@
12:00 UTC

Aug-19 @ 12:00 UTC

Aug-19@
18:00 UTC

Aug-19 @ 18:00 UTC

FM191200 03005KT P6SM BKN040

From

From Standard forecast or significant change

Wind
  • 030° at 5 KTS
Cloud Levels
  • Broken at 4,000' AGL